Weather at Skrydstrup Air Base

Public forecast

Using degrees Celsius for public forecast. Weather courtesy of forecast.io.

Current aviation weather report (METAR) for Skrydstrup Air Base

Report is more than 6 hours old.

2022/11/14 15:20 (retrieved 1 year ago)

EKSP 141520Z 12010KT 9000 FEW010 BKN012 08/06 Q1015 TEMPO 12015G25KT BKN008

Aviation forecast (TAF) for Skrydstrup Air Base

Forecast is more than 12 hours old.

2023/02/22 18:31 (retrieved 1 year ago)

TAF EKSP 221702Z 2218/2318 12008KT 8000 SCT008 BKN030 TEMPO 2218/2302 1800 RADZ BR BKN003 BECMG 2302/2304 0100 FG RADZ VV001 TEMPO 2304/2311 2000 BR BKN003 BECMG 2311/2313 9999 NSW SCT020